Time;durP1;ratioP1;P1;durP2;ratioP2;P2;SDS_P1;SDS_P2;PMS_P1;PMS_P2;Temp;Humidity;BMP_temperature;BMP_pressure;BME280_temperature;BME280_humidity;BME280_pressure;Samples;Min_cycle;Max_cycle;Signal;HPM_P1;HPM_P2
2022/10/28 00:02:25;;;;;;;15.63;8.70;;;;;;;16.43;100.00;101223.94;4942244;29;20544;-80
2022/10/28 00:04:52;;;;;;;18.08;8.75;;;;;;;16.46;100.00;101208.56;4941316;29;20098;-79
2022/10/28 00:07:19;;;;;;;17.42;9.02;;;;;;;16.47;100.00;101209.38;4925628;29;20423;-80
2022/10/28 00:09:45;;;;;;;19.55;8.82;;;;;;;16.56;100.00;101197.69;4923893;29;20091;-79
2022/10/28 00:12:12;;;;;;;16.88;8.77;;;;;;;16.53;100.00;101190.16;4931826;29;20051;-79
2022/10/28 00:14:40;;;;;;;20.05;9.05;;;;;;;16.56;100.00;101187.13;4934918;29;20054;-79
2022/10/28 00:17:07;;;;;;;18.70;9.00;;;;;;;16.53;100.00;101192.81;4922476;29;20076;-80
2022/10/28 00:19:33;;;;;;;14.75;8.63;;;;;;;16.51;100.00;101198.28;4916743;29;20139;-79
2022/10/28 00:22:00;;;;;;;14.63;7.97;;;;;;;16.50;100.00;101198.47;4918252;29;20135;-79
2022/10/28 00:24:27;;;;;;;19.67;8.15;;;;;;;16.46;100.00;101192.72;4936430;29;20055;-80
2022/10/28 00:26:56;;;;;;;13.27;7.97;;;;;;;16.46;100.00;101198.00;4938488;29;20139;-80
2022/10/28 00:29:23;;;;;;;16.10;8.18;;;;;;;16.52;100.00;101201.75;4938460;29;20146;-80
2022/10/28 00:31:51;;;;;;;20.73;7.90;;;;;;;16.50;100.00;101188.72;4937506;29;20063;-80
2022/10/28 00:34:20;;;;;;;16.35;8.48;;;;;;;16.51;100.00;101184.25;4938706;29;20059;-80
2022/10/28 00:36:48;;;;;;;15.90;8.40;;;;;;;16.55;100.00;101185.50;4939885;29;20055;-80
2022/10/28 00:39:17;;;;;;;13.40;8.10;;;;;;;16.54;100.00;101183.88;4934610;29;20076;-79
2022/10/28 00:41:45;;;;;;;15.75;8.65;;;;;;;16.56;100.00;101181.84;4921882;29;20111;-79
2022/10/28 00:44:48;;;;;;;16.08;9.05;;;;;;;16.58;100.00;101182.50;4921208;29;20051;-80
2022/10/28 00:47:26;;;;;;;15.82;8.02;;;;;;;16.55;100.00;101169.66;4923144;29;20551;-80
2022/10/28 00:50:01;;;;;;;18.35;8.30;;;;;;;16.51;100.00;101168.41;4919780;29;20060;-80
2022/10/28 00:52:31;;;;;;;14.85;7.97;;;;;;;16.53;100.00;101184.88;4921171;29;20143;-80
2022/10/28 00:55:01;;;;;;;17.75;8.10;;;;;;;16.57;100.00;101192.25;4923024;29;20130;-80
2022/10/28 00:57:31;;;;;;;15.73;7.93;;;;;;;16.51;100.00;101200.09;4936905;29;20087;-79
2022/10/28 01:00:00;;;;;;;14.77;8.27;;;;;;;16.48;100.00;101205.75;4919772;29;20139;-79
2022/10/28 01:02:28;;;;;;;11.82;8.00;;;;;;;16.40;100.00;101197.88;4938328;29;20101;-80
2022/10/28 01:04:57;;;;;;;14.68;8.13;;;;;;;16.38;100.00;101195.44;4924571;29;20112;-81
2022/10/28 01:07:24;;;;;;;15.70;8.13;;;;;;;16.39;100.00;101185.69;4927363;29;20048;-82
2022/10/28 01:09:51;;;;;;;17.65;8.30;;;;;;;16.40;100.00;101179.41;4928516;29;20159;-81
2022/10/28 01:35:55;;;;;;;18.38;7.40;;;;;;;16.16;100.00;101154.84;4896966;29;20233;-82
2022/10/28 01:38:47;;;;;;;18.10;8.40;;;;;;;16.35;100.00;101179.94;4897519;29;20059;-80
2022/10/28 01:54:05;;;;;;;13.73;7.88;;;;;;;15.81;100.00;101174.81;4938668;29;20539;-80
2022/10/28 01:57:23;;;;;;;16.45;8.38;;;;;;;15.95;100.00;101188.22;4921268;29;20071;-79
2022/10/28 02:06:42;;;;;;;17.08;8.55;;;;;;;16.06;100.00;101170.16;4879059;23;20135;-78
2022/10/28 02:09:19;;;;;;;14.50;8.27;;;;;;;16.04;100.00;101172.16;4952678;29;20119;-78
2022/10/28 02:12:03;;;;;;;13.32;8.13;;;;;;;16.03;100.00;101167.88;4933694;29;20124;-78
2022/10/28 02:14:45;;;;;;;17.58;8.65;;;;;;;15.95;100.00;101162.66;4928005;29;20135;-78
2022/10/28 02:17:22;;;;;;;19.38;8.40;;;;;;;15.93;100.00;101164.66;4929009;29;20115;-78
2022/10/28 02:19:54;;;;;;;13.27;7.90;;;;;;;15.97;100.00;101160.66;4927304;29;20083;-78
2022/10/28 02:22:28;;;;;;;15.55;8.23;;;;;;;15.91;100.00;101162.19;4924598;29;20135;-78
2022/10/28 02:25:06;;;;;;;15.02;8.65;;;;;;;15.82;100.00;101165.06;4940114;29;20083;-78
2022/10/28 02:27:40;;;;;;;18.92;8.48;;;;;;;15.79;100.00;101166.25;4946996;29;20079;-79
2022/10/28 02:30:11;;;;;;;17.98;8.70;;;;;;;15.82;100.00;101163.25;4947887;29;20048;-78
2022/10/28 02:32:40;;;;;;;16.45;8.20;;;;;;;15.84;100.00;101174.44;4947978;29;20048;-77
2022/10/28 02:35:14;;;;;;;18.10;8.38;;;;;;;15.83;100.00;101169.34;4947727;29;20052;-77
2022/10/28 02:37:45;;;;;;;20.60;8.07;;;;;;;15.80;100.00;101154.69;4952426;29;20052;-78
2022/10/28 02:40:15;;;;;;;16.98;7.95;;;;;;;15.83;100.00;101156.16;4955494;29;20083;-78
2022/10/28 02:42:49;;;;;;;16.42;8.55;;;;;;;15.78;100.00;101154.06;4955997;29;20059;-79
2022/10/28 02:45:18;;;;;;;11.77;8.10;;;;;;;15.74;100.00;101149.31;4955675;29;20047;-79
2022/10/28 02:47:48;;;;;;;14.90;8.32;;;;;;;15.64;100.00;101154.81;4932363;29;20412;-78
2022/10/28 02:50:18;;;;;;;18.33;9.07;;;;;;;15.54;100.00;101148.94;4930575;29;20075;-78
2022/10/28 02:52:51;;;;;;;17.38;9.20;;;;;;;15.52;100.00;101135.94;4937000;29;20408;-78
2022/10/28 02:55:20;;;;;;;13.65;7.40;;;;;;;15.66;100.00;101142.25;4948389;29;20079;-79
2022/10/28 02:57:48;;;;;;;19.17;7.95;;;;;;;15.62;100.00;101148.06;4948303;29;20150;-79
2022/10/28 03:00:18;;;;;;;15.00;8.20;;;;;;;15.62;100.00;101138.34;4948931;29;20086;-78
2022/10/28 03:02:44;;;;;;;18.60;8.30;;;;;;;15.63;100.00;101142.63;4929295;29;20083;-78
2022/10/28 03:05:11;;;;;;;20.67;8.93;;;;;;;15.55;100.00;101151.41;4928517;29;20076;-79
2022/10/28 03:07:38;;;;;;;21.23;8.52;;;;;;;15.52;100.00;101141.19;4928896;29;20547;-78
2022/10/28 03:10:07;;;;;;;14.93;8.07;;;;;;;15.56;100.00;101147.81;4928192;29;20130;-78
2022/10/28 03:12:33;;;;;;;18.13;8.60;;;;;;;15.46;100.00;101147.19;4948450;29;20165;-78
2022/10/28 03:15:00;;;;;;;17.38;8.57;;;;;;;15.38;100.00;101146.41;4950220;29;20123;-78
2022/10/28 03:17:27;;;;;;;17.30;8.57;;;;;;;15.33;100.00;101139.00;4951544;29;20721;-77
2022/10/28 03:19:53;;;;;;;13.82;8.00;;;;;;;15.28;100.00;101149.25;4948865;29;20079;-79
2022/10/28 03:22:20;;;;;;;17.00;8.15;;;;;;;15.22;100.00;101147.31;4950552;29;20079;-79
2022/10/28 03:24:46;;;;;;;20.27;8.30;;;;;;;15.24;100.00;101146.16;4948075;29;20111;-79
2022/10/28 03:27:14;;;;;;;17.05;8.35;;;;;;;15.44;100.00;101143.88;4947033;29;20131;-80
2022/10/28 03:29:41;;;;;;;12.52;7.90;;;;;;;15.57;100.00;101149.44;4947652;29;20116;-80
2022/10/28 03:32:08;;;;;;;16.63;9.05;;;;;;;15.60;100.00;101148.25;4947530;29;20090;-80
2022/10/28 03:34:34;;;;;;;17.77;8.15;;;;;;;15.54;100.00;101144.50;4947804;29;20055;-80
2022/10/28 03:37:01;;;;;;;16.23;8.23;;;;;;;15.56;100.00;101142.53;4947763;29;20115;-79
2022/10/28 03:39:27;;;;;;;16.25;8.60;;;;;;;15.63;100.00;101149.72;4947288;29;20134;-80
2022/10/28 03:41:54;;;;;;;15.88;8.63;;;;;;;15.63;100.00;101131.25;4948185;29;20083;-80
2022/10/28 03:44:22;;;;;;;15.27;8.43;;;;;;;15.55;100.00;101124.22;4947599;29;20079;-80
2022/10/28 03:46:48;;;;;;;16.67;8.50;;;;;;;15.52;100.00;101120.09;4947295;29;20051;-81
2022/10/28 03:49:15;;;;;;;16.45;8.00;;;;;;;15.50;100.00;101114.19;4946992;29;20066;-80
2022/10/28 03:51:42;;;;;;;20.23;8.80;;;;;;;15.50;100.00;101110.72;4947640;29;20071;-81
2022/10/28 03:54:08;;;;;;;24.05;9.30;;;;;;;15.47;100.00;101105.81;4945793;29;20578;-81
2022/10/28 03:56:35;;;;;;;25.33;9.23;;;;;;;15.56;100.00;101110.88;4944494;29;20094;-81
2022/10/28 03:59:01;;;;;;;19.35;8.38;;;;;;;15.48;100.00;101087.16;4944748;29;20051;-81
2022/10/28 04:01:29;;;;;;;19.15;8.85;;;;;;;15.56;100.00;101089.78;4945562;29;20124;-80
2022/10/28 04:03:56;;;;;;;17.70;8.85;;;;;;;15.54;100.00;101099.66;4944465;29;20062;-81
2022/10/28 04:06:23;;;;;;;17.08;7.55;;;;;;;15.57;100.00;101091.41;4946537;29;20079;-82
2022/10/28 04:08:49;;;;;;;23.90;9.07;;;;;;;15.52;100.00;101100.81;4946575;29;20074;-81
2022/10/28 04:11:16;;;;;;;16.90;8.60;;;;;;;15.54;100.00;101094.38;4946938;29;20075;-81
2022/10/28 04:13:42;;;;;;;18.25;8.43;;;;;;;15.60;100.00;101096.31;4947117;29;20048;-79
2022/10/28 04:16:09;;;;;;;14.98;7.63;;;;;;;15.71;100.00;101102.16;4947031;29;20566;-82
2022/10/28 04:18:37;;;;;;;17.50;9.00;;;;;;;15.56;100.00;101102.97;4943855;29;20060;-78
2022/10/28 04:21:04;;;;;;;14.63;8.30;;;;;;;15.45;100.00;101103.34;4944088;29;20111;-78
2022/10/28 04:23:31;;;;;;;16.75;9.73;;;;;;;15.36;100.00;101112.28;4940718;29;20146;-79
2022/10/28 04:25:57;;;;;;;17.95;8.70;;;;;;;15.24;100.00;101108.41;4940996;29;20052;-79
2022/10/28 04:28:24;;;;;;;20.05;7.97;;;;;;;15.21;100.00;101109.59;4941194;29;20055;-79
2022/10/28 04:30:51;;;;;;;17.40;8.52;;;;;;;15.24;100.00;101105.78;4940978;29;20132;-79
2022/10/28 04:33:18;;;;;;;17.88;7.90;;;;;;;15.15;100.00;101117.38;4945169;29;20048;-79
2022/10/28 04:35:46;;;;;;;14.20;8.07;;;;;;;15.02;100.00;101122.41;4941775;29;20112;-79
2022/10/28 04:38:14;;;;;;;17.45;8.30;;;;;;;14.88;100.00;101106.31;4940725;29;20094;-79
2022/10/28 04:40:41;;;;;;;20.08;8.40;;;;;;;14.82;100.00;101112.28;4942947;29;20051;-80
2022/10/28 04:43:07;;;;;;;20.60;8.23;;;;;;;14.84;100.00;101112.94;4945009;29;20111;-78
2022/10/28 04:45:34;;;;;;;15.43;8.68;;;;;;;14.89;100.00;101115.88;4943468;29;20055;-80
2022/10/28 04:48:01;;;;;;;18.35;8.68;;;;;;;14.86;100.00;101113.56;4942862;29;20139;-80
2022/10/28 04:50:28;;;;;;;15.65;8.32;;;;;;;14.85;100.00;101122.47;4943562;29;20495;-79
2022/10/28 04:52:56;;;;;;;23.13;8.07;;;;;;;14.83;100.00;101124.47;4951093;29;20047;-80
2022/10/28 04:55:23;;;;;;;20.25;8.80;;;;;;;14.78;100.00;101115.44;4953382;29;20126;-78
2022/10/28 04:57:54;;;;;;;18.67;8.45;;;;;;;14.93;100.00;101117.16;4950580;29;20441;-77
2022/10/28 05:00:22;;;;;;;13.27;9.02;;;;;;;14.99;100.00;101120.94;4948805;29;20052;-78
2022/10/28 05:02:48;;;;;;;17.85;7.80;;;;;;;14.93;100.00;101125.06;4945040;29;20174;-79
2022/10/28 05:05:16;;;;;;;13.00;8.07;;;;;;;14.99;100.00;101128.03;4940790;29;20143;-79
2022/10/28 05:07:42;;;;;;;19.35;9.10;;;;;;;14.96;100.00;101123.09;4943914;29;20091;-80
2022/10/28 05:10:14;;;;;;;25.40;9.10;;;;;;;14.99;100.00;101118.31;4943789;29;20083;-79
2022/10/28 05:12:41;;;;;;;17.20;8.55;;;;;;;15.06;100.00;101123.69;4946059;29;20263;-79
2022/10/28 05:15:10;;;;;;;19.85;8.65;;;;;;;15.00;100.00;101125.22;4945917;29;20051;-79
2022/10/28 05:17:38;;;;;;;23.55;9.02;;;;;;;14.92;100.00;101127.88;4945442;29;20568;-79
2022/10/28 05:20:06;;;;;;;22.13;8.48;;;;;;;15.00;100.00;101117.31;4946319;29;20123;-79
2022/10/28 05:22:33;;;;;;;16.48;8.52;;;;;;;15.12;100.00;101109.84;4945053;29;20418;-79
2022/10/28 05:24:59;;;;;;;18.73;8.63;;;;;;;15.18;100.00;101101.19;4944778;29;20094;-79
2022/10/28 05:27:27;;;;;;;21.90;8.55;;;;;;;15.18;100.00;101115.19;4945263;29;20082;-79
2022/10/28 05:29:54;;;;;;;13.73;7.70;;;;;;;15.20;100.00;101107.94;4946991;29;20247;-79
2022/10/28 05:32:20;;;;;;;15.75;8.80;;;;;;;15.21;100.00;101112.22;4948814;29;20058;-79
2022/10/28 05:34:47;;;;;;;18.67;9.35;;;;;;;15.12;100.00;101121.16;4949016;29;20087;-79
2022/10/28 05:37:14;;;;;;;22.70;8.85;;;;;;;15.12;100.00;101130.91;4947058;29;20115;-81
2022/10/28 05:39:40;;;;;;;17.27;8.32;;;;;;;14.94;100.00;101124.09;4946517;29;20112;-79
2022/10/28 05:42:07;;;;;;;16.00;8.90;;;;;;;14.82;100.00;101135.16;4945588;29;20519;-80
2022/10/28 05:44:35;;;;;;;17.45;9.18;;;;;;;14.70;100.00;101129.44;4946617;29;20051;-80
2022/10/28 05:47:01;;;;;;;19.70;8.57;;;;;;;14.75;100.00;101124.50;4947971;29;20146;-81
2022/10/28 05:49:28;;;;;;;16.38;8.43;;;;;;;14.87;100.00;101130.22;4952923;29;20075;-81
2022/10/28 05:51:57;;;;;;;22.70;8.98;;;;;;;14.88;100.00;101121.31;4952636;29;20119;-80
2022/10/28 05:54:24;;;;;;;18.35;8.52;;;;;;;14.83;100.00;101129.72;4948694;29;20120;-82
2022/10/28 05:56:51;;;;;;;20.40;8.60;;;;;;;14.70;100.00;101126.00;4947928;29;20086;-82
2022/10/28 05:59:17;;;;;;;22.25;9.15;;;;;;;14.63;100.00;101133.78;4947813;29;20137;-81
2022/10/28 06:01:45;;;;;;;28.48;11.35;;;;;;;14.59;100.00;101138.56;4948654;29;20093;-81
2022/10/28 06:04:12;;;;;;;23.98;10.10;;;;;;;14.60;100.00;101134.13;4948873;29;20139;-80
2022/10/28 06:06:38;;;;;;;19.83;9.30;;;;;;;14.74;100.00;101141.28;4948990;29;20059;-81
2022/10/28 06:09:05;;;;;;;17.58;8.60;;;;;;;14.78;100.00;101137.31;4947783;29;20455;-81
2022/10/28 06:11:32;;;;;;;14.15;8.73;;;;;;;14.80;100.00;101137.16;4948527;29;20059;-81
2022/10/28 06:13:58;;;;;;;20.27;9.23;;;;;;;14.80;100.00;101145.88;4948192;29;20123;-81
2022/10/28 06:16:25;;;;;;;21.83;9.32;;;;;;;14.92;100.00;101138.41;4947753;29;20225;-80
2022/10/28 06:18:53;;;;;;;25.92;9.45;;;;;;;14.95;100.00;101146.00;4947102;29;20079;-80
2022/10/28 06:21:19;;;;;;;19.88;8.40;;;;;;;15.07;100.00;101138.53;4948504;29;20075;-81
2022/10/28 06:23:47;;;;;;;20.45;10.10;;;;;;;15.06;100.00;101144.78;4948464;29;20056;-80
2022/10/28 06:26:13;;;;;;;18.88;9.77;;;;;;;15.03;100.00;101143.31;4948849;28;20103;-80
2022/10/28 06:28:40;;;;;;;20.33;9.05;;;;;;;15.01;100.00;101144.47;4965294;28;20078;-80
2022/10/28 06:31:09;;;;;;;23.40;9.48;;;;;;;14.99;100.00;101143.84;4951272;28;20110;-80
2022/10/28 06:33:35;;;;;;;17.73;9.30;;;;;;;14.92;100.00;101139.25;4947390;29;20098;-78
2022/10/28 06:36:04;;;;;;;19.10;8.23;;;;;;;14.93;100.00;101140.88;4947755;29;20044;-81
2022/10/28 06:38:31;;;;;;;21.88;8.90;;;;;;;14.95;100.00;101148.63;4945945;29;20205;-80
2022/10/28 06:40:58;;;;;;;18.60;8.70;;;;;;;14.94;100.00;101147.81;4947344;29;20079;-80
2022/10/28 06:43:25;;;;;;;16.75;8.35;;;;;;;14.98;100.00;101152.72;4946967;29;20051;-80
2022/10/28 06:45:55;;;;;;;15.77;8.85;;;;;;;14.99;100.00;101149.91;4947046;29;20063;-80
2022/10/28 06:48:22;;;;;;;18.23;8.52;;;;;;;15.05;100.00;101148.41;4947131;29;20496;-81
2022/10/28 06:50:49;;;;;;;15.75;9.63;;;;;;;15.12;100.00;101149.38;4947882;29;20079;-81
2022/10/28 06:53:17;;;;;;;18.45;8.10;;;;;;;15.16;100.00;101148.00;4948195;29;20112;-80
2022/10/28 06:55:47;;;;;;;18.83;9.02;;;;;;;15.37;100.00;101142.94;4947851;29;20112;-80
2022/10/28 06:58:14;;;;;;;13.15;8.15;;;;;;;15.45;100.00;101145.53;4948033;29;20073;-80
2022/10/28 07:00:40;;;;;;;23.35;8.38;;;;;;;15.48;100.00;101150.47;4948251;29;20309;-80
2022/10/28 07:03:08;;;;;;;15.82;8.93;;;;;;;15.49;100.00;101143.38;4950797;29;20087;-81
2022/10/28 07:05:35;;;;;;;17.90;8.90;;;;;;;15.53;100.00;101142.84;4949587;29;20052;-81
2022/10/28 07:08:02;;;;;;;23.05;8.75;;;;;;;15.55;100.00;101147.94;4949481;29;20079;-81
2022/10/28 07:10:37;;;;;;;22.63;9.50;;;;;;;15.62;100.00;101153.34;4952223;29;20051;-80
2022/10/28 07:13:04;;;;;;;25.08;8.75;;;;;;;15.66;100.00;101162.56;4946149;29;20063;-82
2022/10/28 07:15:31;;;;;;;24.95;8.18;;;;;;;15.71;100.00;101163.66;4947288;29;20055;-81
2022/10/28 07:17:58;;;;;;;23.67;9.10;;;;;;;15.84;100.00;101168.34;4948117;29;20111;-82
2022/10/28 07:20:28;;;;;;;15.80;8.65;;;;;;;16.05;99.63;101172.97;4948314;29;20094;-82
2022/10/28 07:22:59;;;;;;;22.17;8.57;;;;;;;16.19;98.41;101153.69;4948881;29;20055;-81
2022/10/28 07:25:30;;;;;;;21.98;8.48;;;;;;;16.17;97.85;101156.50;4948167;29;20063;-82
2022/10/28 07:28:00;;;;;;;18.98;8.25;;;;;;;16.75;97.21;101176.06;4947938;29;20050;-82
2022/10/28 07:30:28;;;;;;;23.38;8.95;;;;;;;16.70;95.77;101170.50;4946721;29;20067;-81
2022/10/28 07:32:55;;;;;;;23.15;8.57;;;;;;;16.75;95.18;101170.78;4947710;29;20079;-80
2022/10/28 07:35:22;;;;;;;17.92;8.40;;;;;;;16.80;94.51;101173.69;4945762;29;20051;-79
2022/10/28 07:37:49;;;;;;;17.30;8.13;;;;;;;16.85;94.32;101159.94;4947100;29;20107;-80
2022/10/28 07:40:15;;;;;;;21.90;9.00;;;;;;;17.04;94.21;101169.09;4946990;29;20631;-80
2022/10/28 07:42:43;;;;;;;18.42;8.20;;;;;;;17.34;93.47;101175.97;4947342;29;20090;-79
2022/10/28 07:45:10;;;;;;;18.05;8.43;;;;;;;17.64;91.43;101181.97;4947300;29;20055;-81
2022/10/28 07:47:36;;;;;;;18.27;8.77;;;;;;;17.51;91.27;101172.06;4932580;29;20071;-81
2022/10/28 07:50:04;;;;;;;22.20;8.10;;;;;;;17.40;91.75;101180.50;4930219;29;20044;-81
2022/10/28 07:52:30;;;;;;;19.05;7.68;;;;;;;17.22;92.46;101183.56;4930542;29;20080;-81
2022/10/28 07:54:57;;;;;;;19.42;8.63;;;;;;;17.35;92.69;101188.19;4930316;29;20068;-80
2022/10/28 07:57:24;;;;;;;19.73;8.13;;;;;;;17.24;92.97;101181.56;4929622;29;20071;-81
2022/10/28 07:59:52;;;;;;;20.00;8.05;;;;;;;17.21;93.42;101173.16;4944303;29;20086;-80
2022/10/28 08:02:20;;;;;;;21.55;8.60;;;;;;;17.23;93.14;101174.63;4946987;29;20063;-80
2022/10/28 08:04:47;;;;;;;15.95;7.75;;;;;;;17.25;93.09;101177.09;4947753;29;20119;-80
2022/10/28 08:07:14;;;;;;;24.90;7.72;;;;;;;17.38;92.43;101177.25;4959397;23;20070;-80
2022/10/28 08:09:43;;;;;;;29.90;8.32;;;;;;;17.58;91.56;101178.25;4948026;29;20485;-80
2022/10/28 08:12:13;;;;;;;16.42;7.57;;;;;;;17.61;90.79;101170.94;4937293;29;20479;-78
2022/10/28 08:14:40;;;;;;;21.00;9.05;;;;;;;17.62;90.77;101159.34;4925201;29;20103;-77
2022/10/28 08:17:08;;;;;;;22.55;8.93;;;;;;;17.62;90.69;101165.47;4914261;29;20444;-79
2022/10/28 08:19:34;;;;;;;16.90;8.15;;;;;;;17.61;90.82;101163.00;4913745;29;20186;-79
2022/10/28 08:22:02;;;;;;;20.73;7.78;;;;;;;17.64;90.76;101167.91;4904259;29;20134;-78
2022/10/28 08:24:28;;;;;;;17.83;7.82;;;;;;;17.61;91.12;101173.59;4921506;29;20063;-78
2022/10/28 08:26:58;;;;;;;18.40;7.95;;;;;;;17.57;90.94;101160.72;4910516;29;20056;-79
2022/10/28 08:29:25;;;;;;;14.60;7.93;;;;;;;17.55;90.83;101168.03;4913028;29;20051;-79
2022/10/28 08:31:51;;;;;;;22.33;9.25;;;;;;;17.48;91.18;101177.75;4911887;29;20131;-79
2022/10/28 08:34:19;;;;;;;21.27;8.15;;;;;;;17.45;91.25;101158.78;4925929;29;20597;-80
2022/10/28 08:36:46;;;;;;;19.20;8.57;;;;;;;17.48;91.10;101166.34;4916306;29;20055;-80
2022/10/28 08:39:13;;;;;;;19.73;8.80;;;;;;;17.49;90.79;101163.50;4914582;29;20086;-80
2022/10/28 08:41:44;;;;;;;18.75;8.20;;;;;;;17.55;90.82;101168.03;4914309;29;20085;-80
2022/10/28 08:44:45;;;;;;;23.77;8.85;;;;;;;17.61;90.74;101170.94;4914349;29;20143;-80
2022/10/28 08:47:23;;;;;;;21.27;8.20;;;;;;;17.73;90.51;101158.88;4917575;29;20484;-80
2022/10/28 08:49:56;;;;;;;22.60;8.68;;;;;;;17.75;90.14;101162.16;4924031;29;20057;-80
2022/10/28 08:52:31;;;;;;;17.98;8.77;;;;;;;17.75;90.05;101156.84;4922114;29;20064;-79
2022/10/28 08:55:02;;;;;;;22.77;8.05;;;;;;;17.79;90.12;101164.22;4927556;29;20095;-78
2022/10/28 08:57:37;;;;;;;22.55;8.98;;;;;;;17.89;90.04;101155.97;4922818;29;20100;-78
2022/10/28 09:00:07;;;;;;;19.42;8.43;;;;;;;18.04;89.33;101156.69;4924126;29;20063;-78
2022/10/28 09:02:47;;;;;;;26.80;8.48;;;;;;;18.13;88.92;101152.06;4923189;29;20053;-79
2022/10/28 09:05:21;;;;;;;21.73;7.47;;;;;;;18.12;88.87;101143.31;4925543;29;20052;-78
2022/10/28 09:07:48;;;;;;;16.48;7.82;;;;;;;18.24;87.99;101148.91;4920302;29;20505;-77
2022/10/28 09:10:17;;;;;;;18.33;7.45;;;;;;;18.32;88.00;101153.22;4924110;29;20075;-79
2022/10/28 09:12:51;;;;;;;16.38;7.85;;;;;;;18.43;87.41;101150.03;4923915;29;20110;-78
2022/10/28 09:15:28;;;;;;;25.25;8.20;;;;;;;18.53;86.90;101147.84;4919334;29;20163;-78
2022/10/28 09:17:56;;;;;;;17.23;8.10;;;;;;;18.68;86.47;101153.88;4921046;29;20135;-79
2022/10/28 09:20:34;;;;;;;23.17;8.73;;;;;;;18.74;86.32;101150.44;4913872;29;20052;-77
2022/10/28 09:23:08;;;;;;;24.90;7.63;;;;;;;18.90;85.85;101147.44;4916839;29;20120;-79
2022/10/28 09:25:47;;;;;;;22.50;8.57;;;;;;;18.94;85.09;101152.34;4922553;29;20138;-78
2022/10/28 09:28:34;;;;;;;25.95;8.95;;;;;;;19.01;84.90;101137.28;4918696;29;20131;-78
2022/10/28 09:31:09;;;;;;;24.40;7.78;;;;;;;19.09;84.38;101155.66;4923853;29;20153;-79
2022/10/28 09:33:47;;;;;;;21.40;8.15;;;;;;;19.27;84.05;101152.47;4923092;29;20052;-79
2022/10/28 09:36:21;;;;;;;16.98;7.72;;;;;;;19.32;83.87;101150.03;4922626;29;20143;-79
2022/10/28 09:38:51;;;;;;;16.40;7.90;;;;;;;19.27;83.19;101147.97;4921596;29;20554;-78
2022/10/28 09:41:22;;;;;;;22.05;8.20;;;;;;;19.36;83.91;101156.56;4921201;29;20566;-78
2022/10/28 09:43:52;;;;;;;16.70;8.10;;;;;;;19.51;84.42;101167.84;4918686;29;20126;-79
2022/10/28 09:48:49;;;;;;;20.67;8.23;;;;;;;19.59;83.55;101141.13;4999744;23;20067;-79
2022/10/28 09:51:34;;;;;;;20.67;7.13;;;;;;;19.76;83.64;101152.97;4957388;28;20052;-79
2022/10/28 09:54:04;;;;;;;15.93;7.35;;;;;;;19.87;83.08;101159.50;4938968;29;20063;-78
2022/10/28 09:56:31;;;;;;;19.98;7.28;;;;;;;20.12;82.15;101157.88;4959442;29;20113;-79
2022/10/28 09:59:09;;;;;;;17.20;7.88;;;;;;;20.03;81.94;101145.81;4941823;29;20052;-79
2022/10/28 10:01:49;;;;;;;21.77;7.28;;;;;;;20.09;81.42;101158.28;4941321;29;20438;-79
2022/10/28 10:04:30;;;;;;;18.00;8.02;;;;;;;20.02;81.48;101157.47;4943029;29;20054;-78
2022/10/28 10:07:32;;;;;;;21.60;7.82;;;;;;;20.32;80.98;101157.81;4959096;29;20168;-79
2022/10/28 10:10:14;;;;;;;19.27;7.85;;;;;;;20.20;79.79;101147.03;4959114;29;20103;-78
2022/10/28 10:12:47;;;;;;;17.83;7.10;;;;;;;20.34;79.85;101163.75;4959708;29;20130;-77
2022/10/28 10:15:23;;;;;;;16.40;7.30;;;;;;;20.34;80.45;101139.00;4958434;29;20051;-78
2022/10/28 10:17:52;;;;;;;26.40;7.50;;;;;;;20.38;80.12;101153.56;4957780;29;20077;-76
2022/10/28 10:20:22;;;;;;;18.27;7.25;;;;;;;20.39;80.29;101152.53;4944953;29;20139;-78
2022/10/28 10:22:51;;;;;;;15.05;7.10;;;;;;;20.45;81.13;101157.03;4939540;29;20040;-78
2022/10/28 10:25:28;;;;;;;20.20;7.45;;;;;;;20.58;80.42;101151.69;4938978;29;20055;-78
2022/10/28 10:27:59;;;;;;;23.25;8.13;;;;;;;20.68;80.09;101146.75;4938151;29;20059;-79
2022/10/28 10:30:30;;;;;;;17.42;7.10;;;;;;;20.78;80.10;101146.31;4927118;29;20139;-79
2022/10/28 10:32:59;;;;;;;21.75;7.35;;;;;;;20.81;79.78;101136.03;4931404;29;20063;-78
2022/10/28 10:35:29;;;;;;;14.60;7.30;;;;;;;20.87;79.53;101148.50;4938360;29;20055;-78
2022/10/28 10:37:59;;;;;;;19.20;7.70;;;;;;;20.98;79.82;101157.66;4937580;29;20052;-76
2022/10/28 10:40:29;;;;;;;22.55;7.80;;;;;;;21.14;79.18;101140.41;4938383;29;20062;-78
2022/10/28 10:43:13;;;;;;;15.98;7.40;;;;;;;21.25;78.88;101137.09;4938711;29;20060;-78
2022/10/28 10:45:41;;;;;;;23.55;7.53;;;;;;;21.17;78.31;101124.00;4938508;29;20062;-78
2022/10/28 10:48:13;;;;;;;19.50;7.13;;;;;;;21.35;78.29;101140.09;4938013;29;20051;-78
2022/10/28 10:50:40;;;;;;;20.80;7.93;;;;;;;21.37;78.18;101134.53;4939136;29;20541;-79
2022/10/28 10:53:26;;;;;;;21.38;7.75;;;;;;;21.38;78.21;101131.66;4939118;29;20056;-78
2022/10/28 10:55:56;;;;;;;21.05;7.47;;;;;;;21.44;77.89;101130.81;4938122;29;20121;-79
2022/10/28 10:58:26;;;;;;;16.65;7.53;;;;;;;21.82;77.84;101128.06;4942936;29;20075;-78
2022/10/28 11:00:56;;;;;;;20.33;8.40;;;;;;;21.99;76.66;101143.50;4931941;29;20055;-79
2022/10/28 11:03:26;;;;;;;26.27;7.82;;;;;;;22.10;76.04;101146.31;4943338;29;20058;-78
2022/10/28 11:05:55;;;;;;;25.67;7.75;;;;;;;22.22;75.86;101133.03;4953354;29;20057;-78
2022/10/28 11:08:33;;;;;;;25.65;7.75;;;;;;;22.42;75.27;101128.34;4943691;29;20043;-78
2022/10/28 11:11:05;;;;;;;22.63;8.13;;;;;;;22.63;74.95;101120.94;4947680;29;20055;-78
2022/10/28 11:13:33;;;;;;;18.63;7.45;;;;;;;22.75;74.64;101119.94;4936291;29;20098;-77
2022/10/28 11:16:01;;;;;;;21.58;7.22;;;;;;;23.03;73.42;101129.28;4923702;29;20237;-79
2022/10/28 11:18:30;;;;;;;23.08;7.65;;;;;;;23.08;71.51;101118.72;4927150;29;20056;-79
2022/10/28 11:21:07;;;;;;;19.63;7.30;;;;;;;22.86;72.12;101123.72;4928149;29;20460;-78
2022/10/28 11:23:50;;;;;;;23.55;8.30;;;;;;;22.96;72.62;101113.34;4928638;29;20080;-78
2022/10/28 11:26:19;;;;;;;18.05;7.30;;;;;;;22.95;72.75;101101.03;4926845;29;20048;-76
2022/10/28 11:29:12;;;;;;;19.50;7.65;;;;;;;22.91;73.06;101102.53;4923268;29;20431;-78
2022/10/28 11:32:11;;;;;;;23.65;9.05;;;;;;;23.02;72.85;101095.63;4928198;29;20061;-79
2022/10/28 11:34:54;;;;;;;21.90;8.35;;;;;;;23.17;72.26;101101.34;4945991;29;20130;-78
2022/10/28 11:37:33;;;;;;;65.85;12.95;;;;;;;23.59;71.54;101112.03;4935284;29;20074;-78
2022/10/28 11:40:15;;;;;;;23.02;6.90;;;;;;;23.53;71.71;101092.41;4927746;29;20071;-78
2022/10/28 11:42:51;;;;;;;84.05;14.90;;;;;;;23.71;71.55;101104.84;4931059;28;20090;-78
2022/10/28 11:45:31;;;;;;;27.15;8.27;;;;;;;23.77;71.34;101085.22;4930554;29;20058;-78
2022/10/28 11:48:15;;;;;;;16.55;6.72;;;;;;;23.90;68.17;101093.00;4955641;28;20047;-79
2022/10/28 11:50:55;;;;;;;21.02;6.85;;;;;;;24.02;66.75;101090.34;4940655;29;20477;-78
2022/10/28 11:56:22;;;;;;;25.55;6.70;;;;;;;23.93;66.06;101065.81;5049140;27;1954402;-79
2022/10/28 11:59:00;;;;;;;21.70;6.75;;;;;;;24.04;65.54;101074.88;5077357;28;20051;-79
2022/10/28 12:01:41;;;;;;;17.92;5.40;;;;;;;24.14;65.24;101072.41;5069964;28;20115;-78
2022/10/28 12:04:20;;;;;;;30.45;6.40;;;;;;;24.09;65.13;101075.81;5052540;28;20099;-79
2022/10/28 12:07:13;;;;;;;15.70;5.97;;;;;;;24.17;65.32;101075.41;5067275;28;20498;-79
2022/10/28 12:09:57;;;;;;;20.95;6.22;;;;;;;24.32;65.13;101074.16;5066388;28;20136;-79
2022/10/28 12:12:33;;;;;;;32.50;7.05;;;;;;;24.31;64.97;101072.53;5068304;28;20053;-78
2022/10/28 12:15:12;;;;;;;14.98;6.30;;;;;;;24.30;64.49;101061.00;5067941;28;20087;-78
2022/10/28 12:17:44;;;;;;;25.70;6.80;;;;;;;24.35;64.97;101058.44;5066980;28;20072;-78